createdAt,value
2022-10-22T00:00:00.450Z,21.70
2022-10-22T00:02:02.222Z,21.30
2022-10-22T00:04:03.767Z,17.75
2022-10-22T00:06:05.459Z,18.40
2022-10-22T00:08:06.937Z,20.13
2022-10-22T00:10:08.935Z,19.00
2022-10-22T00:12:11.543Z,21.20
2022-10-22T00:14:13.129Z,20.00
2022-10-22T00:16:14.677Z,18.25
2022-10-22T00:18:16.227Z,21.65
2022-10-22T00:20:17.753Z,18.98
2022-10-22T00:22:19.216Z,20.30
2022-10-22T00:24:20.848Z,22.42
2022-10-22T00:26:23.098Z,20.58
2022-10-22T00:28:25.023Z,23.25
2022-10-22T00:30:26.487Z,22.33
2022-10-22T00:32:27.937Z,17.60
2022-10-22T00:34:29.447Z,20.85
2022-10-22T00:36:30.890Z,23.83
2022-10-22T00:38:33.005Z,24.65
2022-10-22T00:40:34.631Z,20.67
2022-10-22T00:42:36.193Z,21.88
2022-10-22T00:45:02.797Z,22.55
2022-10-22T00:47:04.457Z,23.63
2022-10-22T00:49:05.983Z,23.20
2022-10-22T00:51:08.380Z,23.02
2022-10-22T00:53:16.733Z,18.17
2022-10-22T00:55:20.212Z,22.00
2022-10-22T00:57:22.716Z,16.95
2022-10-22T00:59:24.257Z,22.15
2022-10-22T01:01:29.486Z,20.23
2022-10-22T01:03:32.208Z,18.70
2022-10-22T01:05:55.081Z,19.55
2022-10-22T01:07:56.973Z,16.33
2022-10-22T01:10:01.581Z,21.88
2022-10-22T01:12:28.340Z,22.08
2022-10-22T01:14:37.455Z,20.02
2022-10-22T01:16:58.368Z,17.95
2022-10-22T01:19:23.317Z,21.13
2022-10-22T01:21:36.368Z,19.98
2022-10-22T01:24:02.275Z,24.83
2022-10-22T01:26:10.499Z,22.27
2022-10-22T01:28:34.750Z,21.48
2022-10-22T01:30:36.955Z,22.30
2022-10-22T01:32:52.274Z,24.70
2022-10-22T01:35:07.729Z,21.38
2022-10-22T01:37:12.750Z,20.33
2022-10-22T01:39:16.022Z,25.23
2022-10-22T01:41:17.606Z,18.67
2022-10-22T01:43:19.406Z,21.80
2022-10-22T01:45:20.996Z,22.58
2022-10-22T01:47:52.232Z,23.00
2022-10-22T01:50:15.204Z,18.60
2022-10-22T01:52:56.198Z,28.00
2022-10-22T01:55:09.958Z,20.90
2022-10-22T01:57:35.235Z,21.35
2022-10-22T01:59:45.562Z,21.05
2022-10-22T02:02:05.369Z,22.92
2022-10-22T02:06:21.915Z,24.67
2022-10-22T02:08:27.892Z,20.48
2022-10-22T02:10:30.353Z,22.13
2022-10-22T02:12:33.865Z,23.20
2022-10-22T02:14:39.307Z,23.42
2022-10-22T02:16:44.665Z,24.92
2022-10-22T02:18:51.315Z,22.10
2022-10-22T02:20:53.574Z,20.73
2022-10-22T02:22:56.358Z,18.80
2022-10-22T02:24:57.822Z,21.73
2022-10-22T02:27:09.432Z,27.73
2022-10-22T02:29:18.759Z,28.63
2022-10-22T02:31:24.758Z,29.65
2022-10-22T02:33:36.555Z,27.45
2022-10-22T02:35:40.816Z,21.67
2022-10-22T02:37:42.993Z,24.83
2022-10-22T02:39:45.614Z,28.02
2022-10-22T02:41:48.109Z,29.88
2022-10-22T02:43:53.426Z,24.75
2022-10-22T02:45:54.939Z,25.23
2022-10-22T02:47:56.621Z,22.23
2022-10-22T02:49:58.204Z,22.60
2022-10-22T02:51:59.843Z,27.67
2022-10-22T02:54:01.344Z,37.83
2022-10-22T02:56:03.128Z,46.63
2022-10-22T02:58:04.605Z,53.13
2022-10-22T03:00:14.220Z,46.13
2022-10-22T03:02:15.825Z,40.00
2022-10-22T03:04:17.298Z,31.45
2022-10-22T03:06:19.120Z,34.40
2022-10-22T03:08:20.635Z,30.45
2022-10-22T03:10:22.071Z,28.55
2022-10-22T03:12:23.540Z,27.95
2022-10-22T03:14:24.969Z,26.83
2022-10-22T03:16:26.424Z,27.00
2022-10-22T03:18:27.987Z,28.17
2022-10-22T03:20:29.571Z,26.73
2022-10-22T03:22:33.681Z,28.17
2022-10-22T03:24:38.278Z,24.75
2022-10-22T03:26:41.505Z,24.50
2022-10-22T03:28:43.488Z,23.17
2022-10-22T03:30:44.955Z,23.40
2022-10-22T03:32:46.423Z,24.73
2022-10-22T03:34:48.111Z,25.20
2022-10-22T03:36:50.073Z,19.67
2022-10-22T03:38:51.608Z,22.35
2022-10-22T03:40:53.406Z,22.75
2022-10-22T03:42:54.976Z,19.05
2022-10-22T03:44:56.498Z,23.70
2022-10-22T03:47:00.256Z,19.42
2022-10-22T03:49:04.143Z,23.08
2022-10-22T03:51:05.829Z,23.38
2022-10-22T03:53:10.682Z,25.30
2022-10-22T03:55:12.230Z,23.63
2022-10-22T03:57:13.739Z,23.92
2022-10-22T03:59:15.529Z,26.80
2022-10-22T04:01:17.237Z,25.73
2022-10-22T04:03:18.711Z,28.15
2022-10-22T04:05:20.190Z,30.83
2022-10-22T04:07:21.814Z,28.42
2022-10-22T04:09:23.768Z,30.00
2022-10-22T04:11:25.235Z,25.88
2022-10-22T04:13:27.065Z,26.08
2022-10-22T04:15:29.130Z,27.30
2022-10-22T04:17:38.405Z,29.00
2022-10-22T04:19:40.040Z,28.35
2022-10-22T04:21:41.686Z,23.25
2022-10-22T04:23:51.084Z,25.42
2022-10-22T04:25:59.117Z,28.50
2022-10-22T04:28:00.566Z,30.33
2022-10-22T04:30:02.971Z,36.72
2022-10-22T04:32:04.748Z,29.00
2022-10-22T04:34:06.261Z,30.17
2022-10-22T04:36:13.084Z,25.63
2022-10-22T04:38:14.827Z,23.83
2022-10-22T04:40:16.439Z,26.10
2022-10-22T04:42:17.912Z,27.17
2022-10-22T04:44:19.421Z,20.95
2022-10-22T04:46:21.222Z,20.25
2022-10-22T04:48:22.691Z,24.17
2022-10-22T04:50:24.329Z,26.55
2022-10-22T04:52:25.845Z,38.00
2022-10-22T04:54:30.518Z,42.60
2022-10-22T04:56:34.561Z,41.67
2022-10-22T04:58:36.115Z,33.47
2022-10-22T05:00:37.638Z,33.25
2022-10-22T05:02:39.201Z,25.65
2022-10-22T05:04:40.741Z,26.88
2022-10-22T05:06:42.919Z,33.85
2022-10-22T05:08:44.546Z,30.27
2022-10-22T05:10:46.083Z,33.58
2022-10-22T05:12:47.585Z,36.03
2022-10-22T05:14:49.062Z,43.55
2022-10-22T05:16:51.368Z,43.38
2022-10-22T05:18:53.415Z,35.40
2022-10-22T05:20:54.953Z,31.92
2022-10-22T05:22:56.406Z,28.60
2022-10-22T05:24:57.880Z,32.85
2022-10-22T05:27:00.197Z,29.33
2022-10-22T05:29:01.678Z,28.67
2022-10-22T05:31:04.744Z,29.58
2022-10-22T05:33:06.260Z,33.30
2022-10-22T05:35:08.003Z,37.28
2022-10-22T05:37:09.498Z,29.77
2022-10-22T05:39:11.051Z,34.65
2022-10-22T05:41:19.321Z,31.90
2022-10-22T05:43:20.818Z,25.00
2022-10-22T05:45:22.265Z,28.15
2022-10-22T05:47:23.825Z,27.52
2022-10-22T05:49:25.271Z,28.27
2022-10-22T05:51:29.067Z,28.27
2022-10-22T05:53:32.205Z,28.35
2022-10-22T05:55:37.382Z,29.40
2022-10-22T05:57:39.985Z,26.33
2022-10-22T05:59:41.519Z,30.50
2022-10-22T06:01:43.157Z,26.67
2022-10-22T06:03:45.408Z,18.85
2022-10-22T06:05:46.895Z,25.73
2022-10-22T06:07:48.572Z,22.10
2022-10-22T06:09:50.398Z,19.95
2022-10-22T06:11:52.237Z,21.80
2022-10-22T06:13:53.730Z,20.95
2022-10-22T06:15:55.333Z,28.75
2022-10-22T06:17:56.818Z,24.30
2022-10-22T06:19:58.280Z,23.73
2022-10-22T06:21:59.808Z,19.58
2022-10-22T06:24:02.361Z,18.02
2022-10-22T06:26:04.675Z,24.30
2022-10-22T06:28:06.161Z,24.33
2022-10-22T06:30:08.361Z,28.17
2022-10-22T06:32:09.857Z,35.03
2022-10-22T06:34:13.395Z,23.23
2022-10-22T06:36:20.241Z,18.95
2022-10-22T06:38:21.884Z,19.35
2022-10-22T06:40:24.398Z,18.25
2022-10-22T06:42:25.860Z,15.45
2022-10-22T06:44:27.538Z,15.38
2022-10-22T06:46:29.102Z,14.15
2022-10-22T06:48:30.918Z,13.63
2022-10-22T06:50:34.986Z,14.30
2022-10-22T06:52:36.449Z,13.70
2022-10-22T06:54:38.019Z,15.35
2022-10-22T06:56:39.589Z,14.30
2022-10-22T06:58:41.217Z,13.13
2022-10-22T07:00:42.712Z,13.07
2022-10-22T07:02:44.335Z,18.85
2022-10-22T07:04:45.967Z,26.45
2022-10-22T07:06:47.487Z,22.30
2022-10-22T07:08:49.075Z,25.08
2022-10-22T07:10:50.590Z,23.05
2022-10-22T07:12:52.035Z,21.95
2022-10-22T07:14:53.509Z,22.48
2022-10-22T07:16:54.998Z,23.75
2022-10-22T07:18:56.482Z,24.63
2022-10-22T07:20:58.207Z,25.70
2022-10-22T07:22:59.768Z,14.30
2022-10-22T07:25:05.243Z,16.02
2022-10-22T07:27:10.977Z,14.70
2022-10-22T07:29:15.473Z,18.95
2022-10-22T07:31:18.080Z,16.73
2022-10-22T07:33:19.781Z,17.10
2022-10-22T07:35:21.312Z,18.85
2022-10-22T07:37:22.875Z,13.70
2022-10-22T07:39:25.918Z,16.73
2022-10-22T07:41:29.558Z,12.80
2022-10-22T07:43:31.084Z,17.15
2022-10-22T07:45:33.644Z,19.33
2022-10-22T07:47:35.728Z,15.88
2022-10-22T07:49:37.226Z,15.07
2022-10-22T07:51:38.812Z,15.82
2022-10-22T07:53:40.397Z,14.50
2022-10-22T07:55:41.887Z,17.15
2022-10-22T07:57:43.356Z,15.60
2022-10-22T07:59:44.878Z,17.52
2022-10-22T08:01:47.041Z,15.75
2022-10-22T08:03:49.097Z,17.52
2022-10-22T08:05:51.758Z,22.02
2022-10-22T08:07:53.212Z,15.80
2022-10-22T08:09:54.800Z,14.30
2022-10-22T08:11:56.697Z,16.98
2022-10-22T08:13:58.169Z,14.60
2022-10-22T08:16:00.523Z,14.85
2022-10-22T08:18:02.202Z,11.93
2022-10-22T08:20:04.501Z,11.35
2022-10-22T08:22:06.432Z,15.55
2022-10-22T08:26:14.457Z,15.38
2022-10-22T08:28:19.824Z,25.60
2022-10-22T08:30:23.511Z,20.15
2022-10-22T08:34:31.641Z,11.32
2022-10-22T08:36:33.591Z,12.18
2022-10-22T08:38:35.532Z,11.25
2022-10-22T08:40:40.077Z,14.10
2022-10-22T08:43:26.105Z,17.45
2022-10-22T08:45:35.100Z,16.98
2022-10-22T08:48:15.044Z,18.63
2022-10-22T08:52:22.080Z,11.25
2022-10-22T08:54:40.603Z,15.07
2022-10-22T08:56:45.564Z,13.23
2022-10-22T08:58:57.045Z,14.00
2022-10-22T09:01:01.316Z,16.73
2022-10-22T09:03:49.000Z,17.42
2022-10-22T09:06:14.804Z,15.43
2022-10-22T09:08:19.548Z,15.88
2022-10-22T09:10:35.457Z,20.10
2022-10-22T09:12:37.853Z,16.83
2022-10-22T09:14:39.356Z,15.73
2022-10-22T09:17:04.996Z,16.92
2022-10-22T09:19:25.860Z,19.65
2022-10-22T09:21:52.252Z,12.52
2022-10-22T09:24:22.217Z,17.23
2022-10-22T09:28:26.768Z,14.20
2022-10-22T09:30:35.421Z,18.17
2022-10-22T09:32:36.865Z,18.60
2022-10-22T09:34:39.123Z,20.02
2022-10-22T09:36:40.581Z,18.20
2022-10-22T09:38:47.365Z,15.35
2022-10-22T09:40:52.252Z,17.27
2022-10-22T09:42:53.788Z,17.70
2022-10-22T09:44:59.362Z,16.67
2022-10-22T09:47:05.561Z,18.83
2022-10-22T09:49:13.260Z,16.80
2022-10-22T09:51:24.316Z,24.17
2022-10-22T09:53:28.764Z,22.13
2022-10-22T09:55:30.792Z,19.55
2022-10-22T09:57:32.693Z,16.42
2022-10-22T09:59:38.560Z,22.90
2022-10-22T10:01:40.970Z,19.42
2022-10-22T10:03:42.562Z,19.75
2022-10-22T10:05:47.446Z,20.98
2022-10-22T10:07:49.471Z,20.77
2022-10-22T10:09:53.962Z,20.63
2022-10-22T10:12:21.579Z,22.92
2022-10-22T10:14:33.864Z,17.33
2022-10-22T10:16:41.342Z,21.33
2022-10-22T10:19:09.033Z,22.65
2022-10-22T10:21:48.978Z,19.65
2022-10-22T10:24:21.400Z,17.13
2022-10-22T10:26:32.470Z,21.35
2022-10-22T10:28:59.111Z,20.33
2022-10-22T10:31:06.568Z,24.00
2022-10-22T10:33:14.143Z,19.75
2022-10-22T10:35:23.804Z,20.27
2022-10-22T10:37:29.467Z,23.70
2022-10-22T10:39:45.491Z,17.98
2022-10-22T10:42:05.013Z,20.50
2022-10-22T10:44:51.539Z,31.02
2022-10-22T10:47:04.296Z,32.38
2022-10-22T10:49:31.593Z,31.42
2022-10-22T10:51:53.265Z,28.90
2022-10-22T10:54:03.952Z,38.60
2022-10-22T10:56:36.825Z,28.95
2022-10-22T10:58:51.199Z,35.95
2022-10-22T11:01:00.880Z,35.95
2022-10-22T11:03:32.661Z,39.33
2022-10-22T11:05:51.413Z,40.65
2022-10-22T11:08:00.107Z,39.15
2022-10-22T11:10:13.790Z,32.37
2022-10-22T11:12:22.650Z,31.33
2022-10-22T11:14:35.858Z,23.10
2022-10-22T11:16:46.392Z,35.78
2022-10-22T11:18:54.176Z,25.70
2022-10-22T11:21:09.297Z,30.13
2022-10-22T11:23:27.229Z,31.08
2022-10-22T11:25:37.293Z,27.45
2022-10-22T11:28:03.278Z,23.83
2022-10-22T11:30:22.670Z,28.42
2022-10-22T11:32:33.417Z,31.25
2022-10-22T11:34:48.735Z,31.40
2022-10-22T11:36:59.831Z,83.10
2022-10-22T11:39:04.026Z,79.95
2022-10-22T11:41:12.168Z,138.18
2022-10-22T11:43:32.776Z,150.23
2022-10-22T11:45:36.186Z,60.83
2022-10-22T11:48:11.835Z,100.18
2022-10-22T11:50:16.423Z,195.38
2022-10-22T11:52:49.818Z,277.63
2022-10-22T11:55:03.673Z,127.18
2022-10-22T11:57:17.138Z,93.07
2022-10-22T11:59:40.118Z,63.42
2022-10-22T12:01:47.877Z,48.80
2022-10-22T12:04:19.161Z,38.60
2022-10-22T12:06:28.546Z,35.35
2022-10-22T12:08:34.019Z,33.28
2022-10-22T12:10:49.507Z,37.58
2022-10-22T12:13:28.446Z,30.20
2022-10-22T12:15:30.238Z,38.28
2022-10-22T12:17:35.274Z,39.03
2022-10-22T12:19:44.493Z,37.75
2022-10-22T12:22:00.262Z,40.25
2022-10-22T12:24:03.156Z,33.30
2022-10-22T12:26:05.586Z,45.35
2022-10-22T12:28:12.572Z,35.50
2022-10-22T12:30:23.701Z,36.65
2022-10-22T12:32:37.127Z,35.25
2022-10-22T12:36:53.467Z,28.42
2022-10-22T12:38:55.740Z,33.42
2022-10-22T12:40:57.722Z,64.65
2022-10-22T12:43:02.584Z,70.22
2022-10-22T12:45:04.323Z,64.50
2022-10-22T12:47:07.751Z,48.10
2022-10-22T12:49:17.091Z,75.10
2022-10-22T12:51:20.430Z,44.40
2022-10-22T12:53:31.659Z,38.50
2022-10-22T12:55:34.391Z,34.97
2022-10-22T12:57:35.935Z,33.05
2022-10-22T12:59:39.091Z,35.60
2022-10-22T13:01:42.940Z,31.25
2022-10-22T13:03:49.840Z,30.88
2022-10-22T13:05:51.844Z,35.28
2022-10-22T13:08:05.189Z,34.17
2022-10-22T13:10:38.659Z,33.65
2022-10-22T13:12:45.124Z,31.88
2022-10-22T13:14:47.223Z,27.75
2022-10-22T13:17:10.043Z,32.10
2022-10-22T13:19:36.691Z,32.80
2022-10-22T13:21:39.401Z,37.83
2022-10-22T13:23:56.776Z,28.75
2022-10-22T13:26:02.911Z,35.70
2022-10-22T13:28:07.580Z,40.63
2022-10-22T13:30:23.596Z,32.67
2022-10-22T13:32:33.754Z,32.38
2022-10-22T13:34:36.443Z,31.52
2022-10-22T13:36:37.953Z,30.98
2022-10-22T13:38:39.437Z,30.10
2022-10-22T13:40:41.584Z,33.75
2022-10-22T13:42:43.415Z,29.55
2022-10-22T13:44:45.155Z,33.40
2022-10-22T13:46:48.500Z,39.55
2022-10-22T13:48:52.782Z,37.72
2022-10-22T13:50:54.696Z,43.75
2022-10-22T13:52:58.500Z,35.25
2022-10-22T13:55:00.033Z,41.80
2022-10-22T13:57:01.590Z,40.90
2022-10-22T13:59:03.591Z,41.70
2022-10-22T14:01:08.903Z,41.83
2022-10-22T14:03:14.184Z,43.00
2022-10-22T14:05:17.878Z,39.88
2022-10-22T14:07:19.544Z,38.22
2022-10-22T14:09:21.299Z,45.40
2022-10-22T14:11:22.790Z,41.40
2022-10-22T14:13:24.569Z,36.85
2022-10-22T14:15:28.712Z,45.40
2022-10-22T14:17:30.506Z,83.20
2022-10-22T14:19:32.206Z,97.80
2022-10-22T14:21:37.203Z,105.20
2022-10-22T14:23:40.338Z,95.88
2022-10-22T14:25:42.401Z,94.45
2022-10-22T14:27:44.382Z,88.65
2022-10-22T14:29:45.902Z,76.93
2022-10-22T14:31:47.510Z,70.13
2022-10-22T14:33:50.110Z,59.67
2022-10-22T14:35:51.771Z,75.85
2022-10-22T14:37:53.994Z,142.45
2022-10-22T14:40:01.389Z,119.30
2022-10-22T14:42:03.395Z,111.78
2022-10-22T14:44:05.494Z,115.63
2022-10-22T14:46:07.423Z,130.55
2022-10-22T14:48:08.960Z,120.18
2022-10-22T14:50:11.343Z,125.65
2022-10-22T14:52:14.870Z,116.43
2022-10-22T14:54:18.400Z,89.20
2022-10-22T14:56:22.514Z,77.55
2022-10-22T14:58:24.290Z,87.68
2022-10-22T15:00:25.833Z,89.05
2022-10-22T15:02:27.464Z,82.30
2022-10-22T15:04:30.568Z,74.30
2022-10-22T15:06:32.053Z,84.00
2022-10-22T15:08:33.895Z,86.80
2022-10-22T15:10:35.604Z,62.28
2022-10-22T15:12:37.146Z,70.35
2022-10-22T15:14:38.724Z,79.00
2022-10-22T15:16:40.248Z,68.57
2022-10-22T15:18:42.044Z,107.30
2022-10-22T15:20:43.519Z,177.48
2022-10-22T15:22:45.414Z,226.32
2022-10-22T15:24:48.588Z,208.15
2022-10-22T15:26:52.558Z,180.23
2022-10-22T15:28:54.719Z,218.75
2022-10-22T15:30:58.750Z,129.30
2022-10-22T15:33:00.265Z,128.20
2022-10-22T15:35:02.297Z,182.82
2022-10-22T15:37:06.675Z,115.40
2022-10-22T15:39:09.854Z,108.35
2022-10-22T15:41:12.762Z,119.65
2022-10-22T15:43:14.722Z,174.98
2022-10-22T15:45:16.419Z,135.80
2022-10-22T15:47:18.085Z,154.68
2022-10-22T15:49:19.576Z,187.20
2022-10-22T15:51:21.222Z,167.95
2022-10-22T15:53:22.830Z,166.48
2022-10-22T15:55:24.402Z,150.65
2022-10-22T15:57:26.090Z,85.25
2022-10-22T15:59:27.737Z,69.60
2022-10-22T16:01:30.063Z,72.72
2022-10-22T16:05:38.116Z,63.95
2022-10-22T16:07:39.925Z,58.78
2022-10-22T16:09:41.749Z,61.10
2022-10-22T16:11:44.478Z,68.25
2022-10-22T16:13:46.141Z,58.90
2022-10-22T16:15:48.215Z,63.65
2022-10-22T16:17:51.802Z,60.88
2022-10-22T16:19:53.652Z,66.03
2022-10-22T16:21:56.391Z,59.50
2022-10-22T16:24:05.931Z,64.15
2022-10-22T16:26:08.714Z,69.82
2022-10-22T16:28:11.912Z,78.20
2022-10-22T16:30:13.747Z,82.82
2022-10-22T16:32:16.546Z,63.25
2022-10-22T16:34:18.158Z,65.13
2022-10-22T16:36:21.019Z,70.05
2022-10-22T16:38:22.654Z,126.85
2022-10-22T16:40:24.298Z,100.45
2022-10-22T16:42:25.884Z,79.95
2022-10-22T16:44:27.567Z,87.93
2022-10-22T16:46:30.262Z,91.75
2022-10-22T16:48:32.725Z,96.65
2022-10-22T16:50:34.283Z,118.20
2022-10-22T16:52:36.012Z,195.70
2022-10-22T16:54:37.552Z,182.68
2022-10-22T16:56:39.130Z,112.97
2022-10-22T16:58:54.731Z,175.05
2022-10-22T17:00:58.660Z,127.47
2022-10-22T17:03:00.495Z,158.40
2022-10-22T17:05:02.194Z,95.95
2022-10-22T17:07:03.851Z,95.45
2022-10-22T17:09:05.646Z,121.22
2022-10-22T17:11:12.231Z,209.73
2022-10-22T17:13:13.797Z,189.70
2022-10-22T17:15:15.575Z,256.83
2022-10-22T17:17:17.123Z,209.93
2022-10-22T17:19:18.748Z,126.35
2022-10-22T17:21:20.930Z,138.75
2022-10-22T17:23:22.635Z,236.15
2022-10-22T17:25:32.583Z,119.43
2022-10-22T17:29:38.852Z,174.50
2022-10-22T17:31:40.957Z,89.47
2022-10-22T17:33:43.248Z,223.30
2022-10-22T17:35:44.718Z,158.38
2022-10-22T17:37:46.195Z,146.35
2022-10-22T17:39:47.675Z,115.78
2022-10-22T17:41:49.292Z,148.30
2022-10-22T17:43:51.165Z,168.05
2022-10-22T17:45:52.913Z,140.70
2022-10-22T17:47:56.702Z,167.57
2022-10-22T17:49:58.254Z,106.13
2022-10-22T17:54:03.561Z,99.32
2022-10-22T17:56:10.142Z,86.45
2022-10-22T17:58:11.584Z,109.40
2022-10-22T18:00:13.811Z,84.20
2022-10-22T18:02:17.634Z,147.13
2022-10-22T18:04:20.023Z,100.57
2022-10-22T18:06:22.195Z,63.05
2022-10-22T18:08:25.548Z,91.50
2022-10-22T18:10:27.084Z,87.75
2022-10-22T18:12:28.606Z,86.88
2022-10-22T18:14:30.064Z,114.40
2022-10-22T18:16:31.733Z,148.43
2022-10-22T18:18:34.646Z,94.82
2022-10-22T18:20:36.179Z,113.43
2022-10-22T18:22:37.708Z,120.88
2022-10-22T18:24:39.212Z,134.85
2022-10-22T18:26:41.028Z,123.18
2022-10-22T18:28:42.556Z,99.38
2022-10-22T18:30:45.287Z,118.75
2022-10-22T18:32:46.839Z,138.80
2022-10-22T18:34:48.341Z,120.28
2022-10-22T18:36:49.933Z,108.78
2022-10-22T18:38:52.536Z,103.20
2022-10-22T18:40:54.191Z,89.03
2022-10-22T18:42:56.755Z,142.55
2022-10-22T18:44:58.290Z,149.82
2022-10-22T18:46:59.985Z,114.88
2022-10-22T18:49:01.798Z,125.45
2022-10-22T18:51:08.562Z,122.22
2022-10-22T18:53:12.391Z,160.60
2022-10-22T18:55:13.841Z,147.18
2022-10-22T18:57:15.331Z,128.60
2022-10-22T18:59:19.793Z,97.00
2022-10-22T19:01:29.337Z,166.88
2022-10-22T19:03:30.921Z,107.72
2022-10-22T19:05:32.464Z,100.82
2022-10-22T19:07:36.369Z,97.28
2022-10-22T19:09:38.921Z,94.07
2022-10-22T19:11:40.441Z,125.43
2022-10-22T19:13:42.710Z,91.32
2022-10-22T19:15:44.190Z,75.43
2022-10-22T19:17:45.799Z,109.95
2022-10-22T19:19:47.305Z,74.18
2022-10-22T19:21:49.323Z,70.47
2022-10-22T19:23:51.632Z,65.20
2022-10-22T19:26:07.596Z,73.95
2022-10-22T19:28:09.070Z,77.80
2022-10-22T19:30:11.072Z,103.78
2022-10-22T19:32:13.030Z,82.28
2022-10-22T19:34:14.497Z,91.10
2022-10-22T19:36:18.430Z,84.03
2022-10-22T19:38:19.913Z,86.68
2022-10-22T19:42:30.626Z,115.72
2022-10-22T19:44:32.221Z,179.15
2022-10-22T19:46:33.770Z,135.52
2022-10-22T19:48:35.993Z,117.47
2022-10-22T19:50:37.719Z,160.82
2022-10-22T19:52:39.466Z,145.75
2022-10-22T19:54:44.589Z,319.30
2022-10-22T19:56:47.034Z,163.27
2022-10-22T19:58:53.444Z,117.25
2022-10-22T20:00:55.027Z,200.43
2022-10-22T20:02:56.622Z,223.43
2022-10-22T20:04:58.175Z,115.82
2022-10-22T20:06:59.915Z,309.88
2022-10-22T20:09:01.506Z,160.77
2022-10-22T20:11:04.207Z,123.97
2022-10-22T20:13:05.802Z,119.13
2022-10-22T20:15:08.036Z,139.48
2022-10-22T20:17:09.548Z,135.07
2022-10-22T20:19:15.948Z,129.27
2022-10-22T20:21:19.294Z,140.63
2022-10-22T20:23:21.052Z,131.48
2022-10-22T20:25:22.514Z,122.80
2022-10-22T20:27:23.996Z,132.88
2022-10-22T20:29:25.536Z,130.88
2022-10-22T20:31:29.357Z,129.70
2022-10-22T20:33:30.843Z,124.05
2022-10-22T20:35:32.411Z,139.45
2022-10-22T20:37:34.499Z,175.73
2022-10-22T20:39:36.159Z,111.55
2022-10-22T20:41:40.260Z,128.27
2022-10-22T20:43:44.796Z,113.05
2022-10-22T20:45:46.300Z,158.13
2022-10-22T20:47:58.364Z,108.93
2022-10-22T20:50:04.029Z,99.57
2022-10-22T20:52:05.587Z,115.35
2022-10-22T20:54:08.589Z,108.97
2022-10-22T20:56:11.041Z,92.18
2022-10-22T20:58:12.478Z,91.68
2022-10-22T21:00:14.478Z,101.53
2022-10-22T21:02:16.064Z,91.88
2022-10-22T21:04:19.705Z,78.68
2022-10-22T21:06:23.313Z,117.88
2022-10-22T21:08:24.946Z,88.50
2022-10-22T21:10:31.614Z,96.72
2022-10-22T21:12:34.129Z,68.25
2022-10-22T21:14:35.643Z,69.72
2022-10-22T21:16:44.098Z,68.22
2022-10-22T21:18:46.641Z,65.47
2022-10-22T21:20:48.211Z,64.78
2022-10-22T21:22:49.725Z,72.60
2022-10-22T21:24:51.164Z,57.90
2022-10-22T21:26:53.280Z,64.57
2022-10-22T21:28:54.994Z,64.40
2022-10-22T21:30:56.446Z,66.15
2022-10-22T21:32:58.110Z,58.28
2022-10-22T21:34:59.655Z,59.63
2022-10-22T21:37:01.101Z,56.65
2022-10-22T21:39:02.966Z,55.90
2022-10-22T21:41:09.644Z,67.97
2022-10-22T21:43:11.204Z,69.00
2022-10-22T21:45:14.239Z,77.30
2022-10-22T21:47:17.234Z,128.40
2022-10-22T21:49:18.960Z,148.10
2022-10-22T21:51:21.065Z,77.90
2022-10-22T21:53:22.564Z,107.90
2022-10-22T21:55:24.067Z,89.70
2022-10-22T21:57:25.557Z,90.00
2022-10-22T21:59:32.140Z,62.92
2022-10-22T22:01:34.407Z,77.55
2022-10-22T22:03:36.209Z,65.97
2022-10-22T22:05:38.001Z,94.47
2022-10-22T22:07:40.207Z,112.65
2022-10-22T22:09:41.747Z,115.38
2022-10-22T22:11:43.298Z,88.90
2022-10-22T22:13:45.463Z,92.18
2022-10-22T22:15:46.934Z,80.35
2022-10-22T22:17:48.379Z,77.80
2022-10-22T22:19:49.879Z,88.53
2022-10-22T22:21:52.896Z,92.43
2022-10-22T22:23:54.460Z,73.57
2022-10-22T22:26:02.497Z,88.13
2022-10-22T22:28:04.127Z,77.05
2022-10-22T22:30:06.394Z,97.53
2022-10-22T22:32:07.856Z,97.75
2022-10-22T22:34:15.317Z,91.00
2022-10-22T22:36:16.797Z,104.03
2022-10-22T22:38:18.330Z,202.70
2022-10-22T22:40:19.868Z,123.25
2022-10-22T22:42:21.329Z,93.15
2022-10-22T22:44:22.864Z,105.85
2022-10-22T22:46:24.361Z,100.65
2022-10-22T22:48:25.880Z,92.72
2022-10-22T22:50:27.525Z,97.53
2022-10-22T22:52:29.100Z,97.63
2022-10-22T22:54:30.631Z,88.82
2022-10-22T22:56:34.593Z,94.40
2022-10-22T22:58:37.635Z,93.65
2022-10-22T23:02:40.893Z,95.10
2022-10-22T23:04:42.612Z,89.93
2022-10-22T23:06:44.073Z,95.68
2022-10-22T23:08:49.543Z,84.07
2022-10-22T23:10:51.009Z,92.25
2022-10-22T23:12:52.512Z,90.93
2022-10-22T23:14:53.992Z,84.53
2022-10-22T23:16:55.484Z,95.07
2022-10-22T23:18:57.803Z,92.70
2022-10-22T23:21:02.540Z,94.75
2022-10-22T23:23:06.218Z,86.78
2022-10-22T23:25:08.174Z,88.60
2022-10-22T23:27:10.163Z,92.18
2022-10-22T23:29:14.788Z,80.03
2022-10-22T23:31:18.660Z,77.03
2022-10-22T23:33:20.157Z,73.85
2022-10-22T23:35:21.781Z,71.75
2022-10-22T23:37:23.245Z,75.85
2022-10-22T23:39:28.604Z,69.95
2022-10-22T23:41:30.073Z,70.43
2022-10-22T23:43:36.027Z,66.07
2022-10-22T23:45:37.633Z,69.30
2022-10-22T23:47:39.300Z,70.05
2022-10-22T23:49:40.890Z,67.57
2022-10-22T23:51:42.578Z,77.20
2022-10-22T23:53:45.273Z,71.93
2022-10-22T23:55:46.749Z,65.78
2022-10-22T23:57:48.310Z,73.30
2022-10-22T23:59:49.764Z,69.80
